Time;durP1;ratioP1;P1;durP2;ratioP2;P2;SDS_P1;SDS_P2;PMS_P1;PMS_P2;Temp;Humidity;BMP_temperature;BMP_pressure;BME280_temperature;BME280_humidity;BME280_pressure;Samples;Min_cycle;Max_cycle;Signal;HPM_P1;HPM_P2
2023/12/22 00:00:56;;;;;;;2.38;1.73;;;6.20;99.90;;;;;;5087362;28;20221;-73
2023/12/22 00:03:22;;;;;;;0.40;0.40;;;6.10;99.90;;;;;;5088701;28;20207;-73
2023/12/22 00:05:49;;;;;;;2.08;0.75;;;6.20;99.90;;;;;;5088108;28;20221;-73
2023/12/22 00:08:16;;;;;;;0.40;0.30;;;6.30;99.90;;;;;;5088583;28;20735;-73
2023/12/22 00:10:44;;;;;;;0.70;0.65;;;6.30;99.90;;;;;;5087471;28;20707;-73
2023/12/22 00:13:11;;;;;;;1.10;1.10;;;6.50;99.90;;;;;;5087841;28;20706;-74
2023/12/22 00:15:37;;;;;;;2.67;0.95;;;6.50;99.90;;;;;;5088076;28;20199;-74
2023/12/22 00:18:05;;;;;;;1.10;0.90;;;6.60;99.90;;;;;;5088063;28;20206;-74
2023/12/22 00:20:31;;;;;;;1.40;1.30;;;6.60;99.90;;;;;;5087455;28;20206;-74
2023/12/22 00:22:58;;;;;;;2.80;1.23;;;6.70;99.90;;;;;;5087707;28;20198;-73
2023/12/22 00:25:25;;;;;;;2.70;1.05;;;6.70;99.90;;;;;;5087631;28;20210;-74
2023/12/22 00:27:53;;;;;;;1.90;0.77;;;6.80;99.90;;;;;;5088138;28;20611;-73
2023/12/22 00:30:20;;;;;;;2.80;0.60;;;6.70;99.90;;;;;;5087467;28;20210;-73
2023/12/22 00:32:47;;;;;;;1.25;0.80;;;6.80;99.90;;;;;;5087863;28;20222;-74
2023/12/22 00:35:14;;;;;;;2.40;0.85;;;6.80;99.90;;;;;;5088352;28;20208;-73
2023/12/22 00:37:40;;;;;;;6.03;1.40;;;6.90;99.90;;;;;;5087253;28;20301;-74
2023/12/22 00:40:09;;;;;;;3.35;1.30;;;6.90;99.90;;;;;;5086880;28;20206;-73
2023/12/22 00:42:36;;;;;;;0.82;0.70;;;6.90;99.90;;;;;;5087822;28;20198;-73
2023/12/22 00:45:04;;;;;;;1.00;0.93;;;6.90;99.90;;;;;;5087687;28;20206;-73
2023/12/22 00:47:31;;;;;;;1.10;0.90;;;6.90;99.90;;;;;;5087071;28;20214;-73
2023/12/22 00:49:58;;;;;;;1.35;1.20;;;6.90;99.90;;;;;;5086536;28;20564;-74
2023/12/22 00:52:25;;;;;;;1.38;1.05;;;6.90;99.90;;;;;;5087222;28;20223;-73
2023/12/22 00:54:51;;;;;;;1.90;0.95;;;6.90;99.90;;;;;;5087178;28;20203;-73
2023/12/22 00:57:18;;;;;;;1.13;0.88;;;6.90;99.90;;;;;;5089865;28;20208;-73
2023/12/22 00:59:47;;;;;;;1.33;0.90;;;6.90;99.90;;;;;;5084369;28;20214;-74
2023/12/22 01:02:15;;;;;;;1.00;0.90;;;6.90;99.90;;;;;;5087066;28;20767;-74
2023/12/22 01:04:42;;;;;;;1.52;0.60;;;6.90;99.90;;;;;;5087028;28;20198;-74
2023/12/22 01:07:10;;;;;;;0.30;0.30;;;6.90;99.90;;;;;;5087083;28;20202;-74
2023/12/22 01:09:37;;;;;;;1.60;0.82;;;6.90;99.90;;;;;;5086618;28;20285;-75
2023/12/22 01:12:04;;;;;;;1.52;1.02;;;6.90;99.90;;;;;;5087270;28;20238;-74
2023/12/22 01:14:31;;;;;;;1.08;0.80;;;6.80;99.90;;;;;;5086537;28;20215;-75
2023/12/22 01:16:59;;;;;;;0.60;0.60;;;6.80;99.90;;;;;;5086908;28;20201;-74
2023/12/22 01:19:27;;;;;;;1.23;0.85;;;6.80;99.90;;;;;;5086579;28;20585;-74
2023/12/22 01:21:54;;;;;;;0.95;0.52;;;6.80;99.90;;;;;;5086342;28;20195;-74
2023/12/22 01:24:20;;;;;;;0.70;0.70;;;6.80;99.90;;;;;;5087055;28;20217;-75
2023/12/22 01:26:47;;;;;;;2.28;1.15;;;6.70;99.90;;;;;;5086608;28;20623;-74
2023/12/22 01:29:14;;;;;;;0.82;0.73;;;6.80;99.90;;;;;;5086649;28;20214;-75
2023/12/22 01:31:41;;;;;;;0.50;0.50;;;6.80;99.90;;;;;;5085602;28;20218;-74
2023/12/22 01:34:07;;;;;;;0.60;0.60;;;6.80;99.90;;;;;;5086351;28;20609;-74
2023/12/22 01:36:36;;;;;;;0.50;0.50;;;6.80;99.90;;;;;;5085849;28;20212;-75
2023/12/22 01:39:04;;;;;;;1.08;0.98;;;6.80;99.90;;;;;;5086234;28;21333;-75
2023/12/22 01:41:31;;;;;;;4.45;1.17;;;6.70;99.90;;;;;;5086037;28;20202;-74
2023/12/22 01:43:57;;;;;;;0.55;0.55;;;6.70;99.90;;;;;;5086712;28;20213;-75
2023/12/22 01:46:24;;;;;;;0.30;0.20;;;6.70;99.90;;;;;;5085885;28;20209;-75
2023/12/22 01:48:51;;;;;;;1.90;0.55;;;6.80;99.90;;;;;;5086374;28;20234;-75
2023/12/22 01:51:18;;;;;;;2.90;0.60;;;6.70;99.90;;;;;;5086020;28;20202;-74
2023/12/22 01:53:47;;;;;;;0.50;0.40;;;6.80;99.90;;;;;;5086410;28;20210;-74
2023/12/22 01:56:14;;;;;;;0.40;0.40;;;6.80;99.90;;;;;;5086030;28;20690;-74
2023/12/22 01:58:41;;;;;;;0.95;0.75;;;6.80;99.90;;;;;;5082409;28;20648;-74
2023/12/22 02:01:08;;;;;;;0.68;0.68;;;6.70;99.90;;;;;;5085350;28;20202;-74
2023/12/22 02:03:36;;;;;;;0.65;0.60;;;6.80;99.90;;;;;;5086483;28;20212;-74
2023/12/22 02:06:03;;;;;;;0.30;0.30;;;6.80;99.90;;;;;;5086442;28;20556;-74
2023/12/22 02:08:33;;;;;;;1.40;0.50;;;6.80;99.90;;;;;;5086725;28;20215;-74
2023/12/22 02:11:02;;;;;;;1.75;0.35;;;6.80;99.90;;;;;;5086074;28;20683;-74
2023/12/22 02:13:30;;;;;;;0.43;0.30;;;6.70;99.90;;;;;;5085103;28;20214;-74
2023/12/22 02:16:04;;;;;;;0.55;0.40;;;6.80;99.90;;;;;;5086742;28;20200;-74
2023/12/22 02:18:35;;;;;;;0.70;0.30;;;6.70;99.90;;;;;;5067433;28;20255;-75
2023/12/22 02:21:03;;;;;;;0.30;0.20;;;6.70;99.90;;;;;;5085850;28;20205;-74
2023/12/22 02:23:32;;;;;;;0.50;0.40;;;6.60;99.90;;;;;;5086563;28;20210;-75
2023/12/22 02:26:07;;;;;;;0.30;0.30;;;6.60;99.90;;;;;;5086447;28;20203;-75
2023/12/22 02:28:38;;;;;;;0.55;0.52;;;6.70;99.90;;;;;;5086757;28;20202;-74
2023/12/22 02:31:13;;;;;;;0.40;0.40;;;6.60;99.90;;;;;;5085739;28;20244;-75
2023/12/22 02:33:43;;;;;;;0.68;0.50;;;6.60;99.90;;;;;;5086136;28;20246;-74
2023/12/22 02:36:13;;;;;;;0.95;0.50;;;6.70;99.90;;;;;;5086014;28;20270;-75
2023/12/22 02:38:44;;;;;;;0.60;0.52;;;6.70;99.90;;;;;;5084537;28;20564;-75
2023/12/22 02:41:13;;;;;;;1.17;1.10;;;6.60;99.90;;;;;;5085852;28;20358;-74
2023/12/22 02:43:42;;;;;;;0.88;0.75;;;6.70;99.90;;;;;;5084125;28;20194;-74
2023/12/22 02:46:14;;;;;;;1.10;0.70;;;6.70;99.90;;;;;;5082650;28;20623;-75
2023/12/22 02:48:43;;;;;;;0.63;0.50;;;6.70;99.90;;;;;;5087924;28;20206;-74
2023/12/22 02:51:10;;;;;;;1.25;0.95;;;6.80;99.90;;;;;;5088962;28;20285;-74
2023/12/22 02:53:36;;;;;;;1.10;0.70;;;6.70;99.90;;;;;;5090157;28;20373;-74
2023/12/22 02:56:05;;;;;;;0.60;0.60;;;6.70;99.90;;;;;;5089879;28;20225;-74
2023/12/22 02:58:32;;;;;;;0.50;0.40;;;6.70;99.90;;;;;;5088363;28;20202;-74
2023/12/22 03:00:59;;;;;;;0.50;0.47;;;6.80;99.90;;;;;;5089529;28;20341;-75
2023/12/22 03:03:26;;;;;;;0.57;0.57;;;6.80;99.90;;;;;;5089617;28;20203;-74
2023/12/22 03:05:54;;;;;;;1.20;0.90;;;6.90;99.90;;;;;;5090230;28;20203;-75
2023/12/22 03:08:21;;;;;;;0.60;0.50;;;6.80;99.90;;;;;;5087631;28;20206;-75
2023/12/22 03:10:49;;;;;;;0.73;0.73;;;6.80;99.90;;;;;;5073010;28;20195;-74
2023/12/22 03:13:19;;;;;;;1.17;0.98;;;6.80;99.90;;;;;;5089896;28;20222;-73
2023/12/22 03:15:47;;;;;;;0.80;0.80;;;6.90;99.90;;;;;;5089066;28;20198;-74
2023/12/22 03:18:13;;;;;;;0.63;0.55;;;6.90;99.90;;;;;;5089608;28;20214;-74
2023/12/22 03:20:40;;;;;;;0.47;0.47;;;6.90;99.90;;;;;;5089219;28;20264;-73
2023/12/22 03:23:07;;;;;;;0.50;0.47;;;6.90;99.90;;;;;;5090047;28;20283;-74
2023/12/22 03:25:34;;;;;;;0.40;0.30;;;6.90;99.90;;;;;;5088563;28;20263;-74
2023/12/22 03:28:01;;;;;;;1.75;0.82;;;7.00;99.90;;;;;;5089300;28;20600;-74
2023/12/22 03:30:29;;;;;;;0.40;0.30;;;6.90;99.90;;;;;;5087925;28;20203;-74
2023/12/22 03:32:55;;;;;;;0.98;0.52;;;6.90;99.90;;;;;;5089045;28;20218;-73
2023/12/22 03:35:21;;;;;;;8.63;1.27;;;6.90;99.90;;;;;;5088610;28;20221;-73
2023/12/22 03:37:48;;;;;;;0.60;0.60;;;6.90;99.90;;;;;;5088693;28;20210;-73
2023/12/22 03:40:15;;;;;;;1.52;0.50;;;6.80;99.90;;;;;;5088175;28;20203;-73
2023/12/22 03:42:43;;;;;;;1.83;0.80;;;6.90;99.90;;;;;;5089790;28;20209;-74
2023/12/22 03:45:10;;;;;;;0.30;0.20;;;6.90;99.90;;;;;;5089119;28;20325;-74
2023/12/22 03:47:39;;;;;;;0.50;0.43;;;6.90;99.90;;;;;;5089267;28;20217;-74
2023/12/22 03:50:08;;;;;;;0.55;0.40;;;6.90;99.90;;;;;;5088724;28;20286;-74
2023/12/22 03:52:36;;;;;;;0.50;0.30;;;6.90;99.90;;;;;;5088301;28;20219;-73
2023/12/22 03:55:04;;;;;;;0.52;0.52;;;7.00;99.90;;;;;;5089215;28;20198;-74
2023/12/22 03:57:31;;;;;;;2.58;0.50;;;6.90;99.90;;;;;;5088456;28;20207;-73
2023/12/22 03:59:59;;;;;;;3.00;0.63;;;6.90;99.90;;;;;;5088142;28;20209;-74
2023/12/22 04:02:27;;;;;;;3.90;0.80;;;6.80;99.90;;;;;;5089232;28;20942;-73
2023/12/22 04:04:56;;;;;;;1.55;1.02;;;6.80;99.90;;;;;;5088312;28;21220;-73
2023/12/22 04:07:24;;;;;;;6.63;0.77;;;6.70;99.90;;;;;;5089087;28;20202;-73
2023/12/22 04:09:50;;;;;;;1.98;1.60;;;6.70;99.90;;;;;;5088151;28;20751;-73
2023/12/22 04:12:18;;;;;;;0.70;0.50;;;6.60;99.90;;;;;;5088134;28;20226;-73
2023/12/22 04:14:45;;;;;;;2.80;0.65;;;6.60;99.90;;;;;;5088379;28;20199;-73
2023/12/22 04:17:12;;;;;;;1.35;0.77;;;6.50;99.90;;;;;;5088775;28;20725;-73
2023/12/22 04:19:40;;;;;;;2.05;1.20;;;6.40;99.90;;;;;;5087989;28;20202;-73
2023/12/22 04:22:08;;;;;;;2.83;1.70;;;6.30;99.90;;;;;;5088704;28;20202;-73
2023/12/22 04:24:36;;;;;;;3.65;1.38;;;6.40;99.90;;;;;;5088046;28;20202;-73
2023/12/22 04:27:04;;;;;;;1.13;0.80;;;6.30;99.90;;;;;;5088480;28;20683;-72
2023/12/22 04:29:31;;;;;;;0.80;0.80;;;6.20;99.90;;;;;;5088689;28;20202;-73
2023/12/22 04:31:58;;;;;;;0.75;0.75;;;6.20;99.90;;;;;;5088081;28;20226;-73
2023/12/22 04:34:25;;;;;;;0.40;0.40;;;6.20;99.90;;;;;;5088157;28;20343;-73
2023/12/22 04:36:51;;;;;;;1.50;1.40;;;6.30;99.90;;;;;;5088432;28;20302;-73
2023/12/22 04:39:20;;;;;;;1.00;0.70;;;6.30;99.90;;;;;;5087889;28;20210;-73
2023/12/22 04:41:46;;;;;;;0.77;0.77;;;6.30;99.90;;;;;;5088014;28;20198;-73
2023/12/22 04:44:13;;;;;;;0.65;0.25;;;6.30;99.90;;;;;;5088423;28;20271;-73
2023/12/22 04:46:40;;;;;;;1.48;1.05;;;6.40;99.90;;;;;;5088139;28;20248;-73
2023/12/22 04:49:07;;;;;;;1.73;0.70;;;6.40;99.90;;;;;;5087871;28;20285;-73
2023/12/22 04:51:33;;;;;;;0.70;0.63;;;6.40;99.90;;;;;;5087556;28;20599;-73
2023/12/22 04:54:00;;;;;;;0.60;0.60;;;6.40;99.90;;;;;;5087759;28;20707;-74
2023/12/22 04:56:28;;;;;;;0.70;0.70;;;6.40;99.90;;;;;;5087643;28;20241;-73
2023/12/22 04:58:55;;;;;;;0.30;0.20;;;6.40;99.90;;;;;;5088055;28;20205;-73
2023/12/22 05:01:22;;;;;;;0.55;0.52;;;6.40;99.90;;;;;;5086848;28;21853;-73
2023/12/22 05:03:49;;;;;;;0.70;0.40;;;6.40;99.90;;;;;;5087237;28;20616;-73
2023/12/22 05:06:15;;;;;;;0.70;0.40;;;6.40;99.90;;;;;;5087682;28;20225;-73
2023/12/22 05:08:42;;;;;;;0.80;0.50;;;6.40;99.90;;;;;;5084566;28;20568;-73
2023/12/22 05:11:09;;;;;;;2.03;1.25;;;6.50;99.90;;;;;;5082233;28;20293;-74
2023/12/22 05:13:37;;;;;;;1.90;0.90;;;6.50;99.90;;;;;;5087822;28;20226;-74
2023/12/22 05:16:05;;;;;;;1.20;0.82;;;6.50;99.90;;;;;;5087657;28;20863;-74
2023/12/22 05:18:32;;;;;;;0.65;0.63;;;6.50;99.90;;;;;;5087468;28;20213;-73
2023/12/22 05:20:59;;;;;;;0.95;0.95;;;6.50;99.90;;;;;;5086702;28;20207;-73
2023/12/22 05:23:25;;;;;;;0.30;0.30;;;6.60;99.90;;;;;;5087393;28;20202;-74
2023/12/22 05:25:52;;;;;;;1.02;0.88;;;6.70;99.90;;;;;;5087492;28;20671;-73
2023/12/22 05:28:19;;;;;;;1.48;0.90;;;6.70;99.90;;;;;;5087287;28;20202;-74
2023/12/22 05:30:48;;;;;;;0.73;0.73;;;6.70;99.90;;;;;;5086681;28;20214;-74
2023/12/22 05:33:14;;;;;;;4.97;0.90;;;6.70;99.90;;;;;;5087578;28;20264;-74
2023/12/22 05:35:41;;;;;;;1.90;0.73;;;6.60;99.90;;;;;;5079722;28;20210;-74
2023/12/22 05:38:08;;;;;;;1.05;0.70;;;6.70;99.90;;;;;;5087548;28;20256;-74
2023/12/22 05:40:35;;;;;;;1.48;1.38;;;6.70;99.90;;;;;;5086430;28;20198;-73
2023/12/22 05:43:02;;;;;;;1.27;1.10;;;6.60;99.90;;;;;;5087191;28;20197;-74
2023/12/22 05:45:28;;;;;;;0.40;0.40;;;6.70;99.90;;;;;;5087112;28;20305;-74
2023/12/22 05:47:57;;;;;;;0.82;0.82;;;6.70;99.90;;;;;;5086834;28;20301;-74
2023/12/22 05:50:23;;;;;;;1.10;0.90;;;6.70;99.90;;;;;;5085825;28;20329;-74
2023/12/22 05:52:50;;;;;;;1.17;1.08;;;6.70;99.90;;;;;;5082141;28;20225;-74
2023/12/22 05:55:17;;;;;;;3.40;1.42;;;6.70;99.90;;;;;;5087063;28;20199;-74
2023/12/22 05:57:44;;;;;;;0.75;0.70;;;6.70;99.90;;;;;;5086643;28;20209;-74
2023/12/22 06:00:12;;;;;;;3.50;0.80;;;6.80;99.90;;;;;;5086332;28;20280;-74
2023/12/22 06:02:39;;;;;;;7.93;0.85;;;6.90;99.90;;;;;;5086248;28;20212;-74
2023/12/22 06:05:08;;;;;;;1.92;1.13;;;6.90;99.90;;;;;;5086750;28;20194;-74
2023/12/22 06:07:34;;;;;;;0.73;0.73;;;6.90;99.90;;;;;;5086423;28;20225;-74
2023/12/22 06:10:01;;;;;;;5.45;0.98;;;6.90;99.90;;;;;;5086154;28;20569;-75
2023/12/22 06:12:28;;;;;;;0.50;0.30;;;6.90;99.90;;;;;;5086039;28;20659;-79
2023/12/22 06:14:55;;;;;;;3.60;1.30;;;6.90;99.90;;;;;;5084961;28;20741;-76
2023/12/22 06:17:21;;;;;;;1.53;0.70;;;6.90;99.90;;;;;;5086728;28;20202;-72
2023/12/22 06:19:48;;;;;;;2.47;0.90;;;6.90;99.90;;;;;;5085915;28;20628;-71
2023/12/22 06:22:16;;;;;;;3.00;1.88;;;7.00;99.90;;;;;;5086677;28;20212;-74
2023/12/22 06:24:44;;;;;;;1.85;0.88;;;6.90;99.90;;;;;;5081066;28;20209;-76
2023/12/22 06:27:11;;;;;;;3.80;1.00;;;7.00;99.90;;;;;;5086256;28;20210;-75
2023/12/22 06:29:38;;;;;;;1.37;1.03;;;7.00;99.90;;;;;;5085511;28;20206;-75
2023/12/22 06:32:07;;;;;;;1.30;0.53;;;7.00;99.90;;;;;;5086438;28;20624;-72
2023/12/22 06:34:34;;;;;;;4.63;0.70;;;7.00;99.90;;;;;;5085286;28;20660;-72
2023/12/22 06:37:01;;;;;;;1.10;1.10;;;7.10;99.90;;;;;;5086030;28;20625;-72
2023/12/22 06:39:29;;;;;;;1.92;0.90;;;7.10;99.90;;;;;;5086301;28;20216;-72
2023/12/22 06:41:55;;;;;;;0.82;0.75;;;7.10;99.90;;;;;;5085706;28;20600;-72
2023/12/22 06:44:22;;;;;;;1.23;0.93;;;7.10;99.90;;;;;;5085602;28;20220;-72
2023/12/22 06:46:49;;;;;;;1.70;0.95;;;7.10;99.90;;;;;;5086001;28;20723;-72
2023/12/22 06:49:16;;;;;;;1.50;0.67;;;7.00;99.90;;;;;;5085724;28;20218;-73
2023/12/22 06:51:43;;;;;;;4.30;1.10;;;7.10;99.90;;;;;;5084776;28;21266;-73
2023/12/22 06:54:10;;;;;;;3.80;0.70;;;7.10;99.90;;;;;;5081940;28;20571;-73
2023/12/22 06:56:39;;;;;;;1.65;1.40;;;7.10;99.90;;;;;;5080793;28;20713;-73
2023/12/22 06:59:07;;;;;;;2.38;1.10;;;7.10;99.90;;;;;;5086336;28;20224;-73
2023/12/22 07:01:35;;;;;;;1.60;0.80;;;7.10;99.90;;;;;;5085387;28;20279;-73
2023/12/22 07:04:03;;;;;;;1.23;0.70;;;7.10;99.90;;;;;;5085824;28;20639;-73
2023/12/22 07:06:31;;;;;;;2.08;0.70;;;7.00;99.90;;;;;;5085541;28;20957;-73
2023/12/22 07:09:13;;;;;;;0.50;0.43;;;7.00;99.90;;;;;;5080130;28;20194;-73
2023/12/22 07:11:42;;;;;;;1.55;1.13;;;6.80;99.90;;;;;;5083801;28;20992;-73
2023/12/22 07:14:09;;;;;;;0.68;0.68;;;6.80;99.90;;;;;;5085294;28;20579;-73
2023/12/22 07:16:37;;;;;;;1.13;0.60;;;6.70;99.90;;;;;;5083458;28;20214;-73
2023/12/22 07:19:04;;;;;;;2.42;0.90;;;6.70;99.90;;;;;;5085473;28;20211;-73
2023/12/22 07:21:34;;;;;;;1.90;1.10;;;6.70;99.90;;;;;;5087351;28;20591;-73
2023/12/22 07:24:05;;;;;;;0.85;0.57;;;6.70;99.90;;;;;;5088618;28;20206;-74
2023/12/22 07:26:32;;;;;;;2.00;1.63;;;6.70;99.90;;;;;;5088470;28;20260;-74
2023/12/22 07:29:00;;;;;;;1.23;1.00;;;6.70;99.90;;;;;;5089390;28;20236;-73
2023/12/22 07:31:27;;;;;;;3.60;1.73;;;6.60;99.90;;;;;;5090586;28;20214;-74
2023/12/22 07:33:53;;;;;;;1.98;1.00;;;6.70;99.90;;;;;;5095034;28;20222;-74
2023/12/22 07:36:21;;;;;;;3.83;2.08;;;6.70;99.90;;;;;;5093227;28;20300;-74
2023/12/22 07:38:48;;;;;;;1.30;1.20;;;6.80;99.90;;;;;;5096218;28;20221;-73
2023/12/22 07:41:14;;;;;;;0.70;0.70;;;6.80;99.90;;;;;;5093596;28;20205;-73
2023/12/22 07:43:42;;;;;;;2.05;1.30;;;6.70;99.90;;;;;;5095051;28;20201;-73
2023/12/22 07:46:17;;;;;;;1.15;0.85;;;6.60;99.90;;;;;;5096457;28;20209;-73
2023/12/22 07:48:45;;;;;;;1.20;0.80;;;6.50;99.90;;;;;;5090002;28;20293;-73
2023/12/22 07:51:11;;;;;;;1.77;1.33;;;6.50;99.90;;;;;;5091702;28;20255;-73
2023/12/22 07:53:38;;;;;;;2.47;1.38;;;6.50;99.90;;;;;;5093490;28;20259;-74
2023/12/22 07:56:10;;;;;;;0.70;0.60;;;6.40;99.90;;;;;;5093728;28;20941;-73
2023/12/22 07:58:39;;;;;;;0.80;0.70;;;6.40;99.90;;;;;;5091304;28;20669;-73
2023/12/22 08:01:06;;;;;;;1.98;0.90;;;6.30;99.90;;;;;;5093178;28;20214;-73
2023/12/22 08:03:34;;;;;;;1.17;0.65;;;6.20;99.90;;;;;;5091647;28;20211;-73
2023/12/22 08:06:00;;;;;;;2.50;0.65;;;6.20;99.90;;;;;;5088451;28;20220;-73
2023/12/22 08:08:27;;;;;;;2.73;0.80;;;6.10;99.90;;;;;;5087264;28;20202;-74
2023/12/22 08:10:54;;;;;;;0.60;0.60;;;6.10;99.90;;;;;;5087273;28;20624;-73
2023/12/22 08:13:20;;;;;;;1.25;0.40;;;6.10;99.90;;;;;;5088651;28;20209;-73
2023/12/22 08:15:47;;;;;;;1.02;0.80;;;6.10;99.90;;;;;;5087427;28;20202;-74
2023/12/22 08:18:14;;;;;;;1.77;0.80;;;6.10;99.90;;;;;;5087731;28;20209;-74
2023/12/22 08:20:42;;;;;;;2.60;0.80;;;6.10;99.90;;;;;;5087354;28;20233;-73
2023/12/22 08:23:09;;;;;;;1.30;1.10;;;6.00;99.90;;;;;;5087002;28;20194;-72
2023/12/22 08:25:36;;;;;;;0.85;0.70;;;6.00;99.90;;;;;;5087748;28;20745;-73
2023/12/22 08:28:03;;;;;;;2.42;0.65;;;6.10;99.90;;;;;;5088214;28;20675;-71
2023/12/22 08:30:30;;;;;;;1.40;0.88;;;6.10;99.90;;;;;;5087004;28;20210;-72
2023/12/22 08:32:57;;;;;;;0.30;0.30;;;6.10;99.90;;;;;;5088383;28;20213;-72
2023/12/22 08:35:23;;;;;;;1.38;1.27;;;6.20;99.90;;;;;;5087663;28;20218;-74
2023/12/22 08:37:52;;;;;;;1.55;1.40;;;6.30;99.90;;;;;;5087883;28;20559;-73
2023/12/22 08:40:25;;;;;;;10.18;1.85;;;6.30;99.90;;;;;;5087391;28;20212;-72
2023/12/22 08:42:54;;;;;;;1.75;0.80;;;6.40;99.90;;;;;;5087074;28;20252;-73
2023/12/22 08:45:21;;;;;;;0.90;0.75;;;6.40;99.90;;;;;;5088153;28;20735;-73
2023/12/22 08:47:49;;;;;;;2.55;1.20;;;6.50;99.90;;;;;;5084461;28;20212;-74
2023/12/22 08:50:16;;;;;;;0.63;0.60;;;6.50;99.90;;;;;;5085598;28;20612;-74
2023/12/22 08:52:43;;;;;;;5.63;0.95;;;6.60;99.90;;;;;;5086327;28;20240;-73
2023/12/22 08:55:11;;;;;;;1.55;0.63;;;6.60;99.90;;;;;;5086601;28;20225;-73
2023/12/22 08:57:38;;;;;;;1.20;0.68;;;6.60;99.90;;;;;;5086515;28;20210;-74
2023/12/22 09:00:06;;;;;;;1.60;1.23;;;6.70;99.90;;;;;;5086353;28;20719;-78
2023/12/22 09:02:33;;;;;;;4.97;1.30;;;6.60;99.90;;;;;;5070903;28;20213;-74
2023/12/22 09:05:00;;;;;;;5.55;1.33;;;6.60;99.90;;;;;;5091019;28;20211;-76
2023/12/22 09:07:27;;;;;;;3.05;1.45;;;6.60;99.90;;;;;;5086385;28;20202;-76
2023/12/22 09:09:54;;;;;;;2.55;1.73;;;6.60;99.90;;;;;;5083642;28;20214;-75
2023/12/22 09:12:22;;;;;;;9.88;2.45;;;6.70;99.90;;;;;;5088791;28;20226;-75
2023/12/22 09:14:50;;;;;;;1.40;1.25;;;6.70;99.90;;;;;;5083802;28;20219;-75
2023/12/22 09:17:17;;;;;;;8.00;2.13;;;6.80;99.90;;;;;;5087071;28;20198;-75
2023/12/22 09:19:44;;;;;;;1.25;1.15;;;6.70;99.90;;;;;;5086374;28;20206;-75
2023/12/22 09:22:12;;;;;;;2.65;0.85;;;6.80;99.90;;;;;;5086862;28;20686;-75
2023/12/22 09:24:39;;;;;;;4.88;1.35;;;6.80;99.90;;;;;;5086300;28;20701;-74
2023/12/22 09:27:06;;;;;;;1.05;0.60;;;6.80;99.90;;;;;;5087028;28;20202;-75
2023/12/22 09:29:36;;;;;;;5.55;1.42;;;6.80;99.90;;;;;;5086949;28;20216;-75
2023/12/22 09:32:02;;;;;;;2.40;2.03;;;6.90;99.90;;;;;;5086911;28;20214;-74
2023/12/22 09:34:29;;;;;;;1.75;0.57;;;6.90;99.90;;;;;;5085883;28;20222;-75
2023/12/22 09:36:57;;;;;;;1.80;1.17;;;7.00;99.90;;;;;;5086593;28;20560;-75
2023/12/22 09:39:23;;;;;;;8.73;1.92;;;7.00;99.90;;;;;;5086587;28;20532;-75
2023/12/22 09:41:51;;;;;;;1.87;0.80;;;7.00;99.90;;;;;;5086354;28;20206;-75
2023/12/22 09:44:20;;;;;;;1.13;1.02;;;7.10;99.90;;;;;;5085121;28;20640;-75
2023/12/22 09:46:50;;;;;;;2.00;1.45;;;7.10;99.90;;;;;;5078718;28;20214;-78
2023/12/22 09:49:18;;;;;;;0.90;0.90;;;7.10;99.90;;;;;;5081281;28;20208;-79
2023/12/22 09:51:46;;;;;;;6.47;1.88;;;7.10;99.90;;;;;;5085504;28;20225;-81
2023/12/22 09:54:14;;;;;;;1.40;1.00;;;7.10;99.90;;;;;;5086052;28;20305;-81
2023/12/22 09:56:42;;;;;;;5.23;1.50;;;7.20;99.90;;;;;;5085895;28;20748;-80
2023/12/22 09:59:13;;;;;;;3.55;1.55;;;7.10;99.90;;;;;;5085204;28;20632;-78
2023/12/22 10:01:43;;;;;;;2.50;1.05;;;7.10;99.90;;;;;;5084074;28;20203;-80
2023/12/22 10:04:12;;;;;;;2.60;1.40;;;7.20;99.90;;;;;;5085142;28;20210;-78
2023/12/22 10:06:38;;;;;;;1.10;1.00;;;7.10;99.90;;;;;;5085530;28;20230;-77
2023/12/22 10:09:07;;;;;;;1.60;0.70;;;7.30;99.90;;;;;;5084705;28;20973;-77
2023/12/22 10:11:36;;;;;;;1.45;1.20;;;7.30;99.90;;;;;;5084663;28;20225;-77
2023/12/22 10:14:04;;;;;;;3.13;1.20;;;7.30;99.90;;;;;;5084571;28;20209;-77
2023/12/22 10:16:31;;;;;;;2.08;1.70;;;7.20;99.90;;;;;;5086149;28;20233;-77
2023/12/22 10:18:59;;;;;;;1.20;1.03;;;7.30;99.90;;;;;;5096277;28;20512;-77
2023/12/22 10:21:29;;;;;;;2.25;1.23;;;7.30;99.90;;;;;;5097473;28;20627;-77
2023/12/22 10:23:56;;;;;;;1.85;1.00;;;7.30;99.90;;;;;;5093081;28;20206;-77
2023/12/22 10:26:22;;;;;;;3.97;1.30;;;7.30;99.90;;;;;;5091756;28;20213;-77
2023/12/22 10:28:50;;;;;;;1.37;1.23;;;7.40;99.90;;;;;;5092676;28;20213;-77
2023/12/22 10:31:18;;;;;;;0.77;0.75;;;7.40;99.90;;;;;;5096043;28;20649;-78
2023/12/22 10:33:45;;;;;;;1.85;0.90;;;7.30;99.90;;;;;;5087110;28;20293;-78
2023/12/22 10:36:12;;;;;;;2.57;0.87;;;7.40;99.90;;;;;;5083964;28;20670;-78
2023/12/22 10:38:40;;;;;;;1.33;1.03;;;7.40;99.90;;;;;;5085260;28;20969;-77
2023/12/22 10:41:08;;;;;;;0.70;0.60;;;7.40;99.90;;;;;;5082349;28;20629;-78
2023/12/22 10:43:39;;;;;;;5.10;1.57;;;7.40;99.90;;;;;;5085293;28;20620;-78
2023/12/22 10:46:07;;;;;;;1.47;1.37;;;7.40;99.90;;;;;;5084635;28;20626;-77
2023/12/22 10:48:34;;;;;;;0.80;0.80;;;7.30;99.90;;;;;;5083669;28;20656;-77
2023/12/22 10:51:01;;;;;;;0.80;0.80;;;7.40;99.90;;;;;;5084211;28;20625;-77
2023/12/22 10:53:28;;;;;;;1.73;0.67;;;7.40;99.90;;;;;;5087007;28;21231;-77
2023/12/22 10:55:57;;;;;;;1.17;1.10;;;7.30;99.90;;;;;;5085597;28;20701;-77
2023/12/22 10:58:24;;;;;;;2.37;1.00;;;7.40;99.90;;;;;;5084137;28;20625;-77
2023/12/22 11:00:51;;;;;;;1.33;1.10;;;7.30;99.90;;;;;;5088882;28;20635;-77
2023/12/22 11:03:19;;;;;;;0.90;0.80;;;7.40;99.90;;;;;;5084924;28;20716;-77
2023/12/22 11:05:48;;;;;;;1.53;0.70;;;7.40;99.90;;;;;;5085319;28;20222;-77
2023/12/22 11:08:18;;;;;;;1.40;0.40;;;7.30;99.90;;;;;;5085486;28;20650;-77
2023/12/22 11:10:50;;;;;;;4.90;0.80;;;7.40;99.90;;;;;;5088232;28;20628;-77
2023/12/22 11:13:18;;;;;;;0.75;0.75;;;7.40;99.90;;;;;;5089123;28;20625;-77
2023/12/22 11:15:46;;;;;;;0.77;0.50;;;7.30;99.90;;;;;;5086012;28;20520;-76
2023/12/22 11:18:13;;;;;;;5.33;0.60;;;7.20;99.90;;;;;;5089420;28;20800;-76
2023/12/22 11:20:42;;;;;;;3.20;1.10;;;7.20;99.90;;;;;;5088470;28;20652;-76
2023/12/22 11:23:10;;;;;;;1.10;0.82;;;7.20;99.90;;;;;;5088970;28;20775;-76
2023/12/22 11:25:38;;;;;;;0.50;0.47;;;7.10;99.90;;;;;;5088730;28;20677;-75
2023/12/22 11:28:07;;;;;;;1.57;0.50;;;7.20;99.90;;;;;;5089020;28;20819;-75
2023/12/22 11:30:37;;;;;;;0.50;0.50;;;7.00;99.90;;;;;;5089190;28;20750;-76
2023/12/22 11:33:05;;;;;;;1.05;0.55;;;7.00;99.90;;;;;;5088945;28;20218;-76
2023/12/22 11:35:33;;;;;;;0.40;0.40;;;7.00;99.90;;;;;;5088305;28;20218;-76
2023/12/22 11:38:02;;;;;;;2.75;0.90;;;6.90;99.90;;;;;;5088245;28;20212;-76
2023/12/22 11:40:29;;;;;;;0.85;0.57;;;6.90;99.90;;;;;;5088387;28;20210;-76
2023/12/22 11:42:57;;;;;;;2.57;0.80;;;6.80;99.90;;;;;;5088415;28;20205;-76
2023/12/22 11:45:24;;;;;;;2.17;0.80;;;6.80;99.90;;;;;;5088259;28;20628;-76
2023/12/22 11:47:52;;;;;;;3.70;0.85;;;6.80;99.90;;;;;;5088142;28;20320;-76
2023/12/22 11:50:30;;;;;;;0.80;0.65;;;6.70;99.90;;;;;;5088278;28;20198;-75
2023/12/22 11:52:57;;;;;;;0.70;0.70;;;6.70;99.90;;;;;;5088546;28;20309;-75
2023/12/22 11:55:58;;;;;;;1.52;0.88;;;6.60;99.90;;;;;;5088472;28;20238;-75
2023/12/22 11:58:35;;;;;;;2.30;0.85;;;6.60;99.90;;;;;;5088070;28;20198;-76
2023/12/22 12:01:03;;;;;;;0.70;0.65;;;6.60;99.90;;;;;;5082059;28;20210;-77
2023/12/22 12:03:32;;;;;;;0.95;0.88;;;6.60;99.90;;;;;;5087287;28;20207;-76
2023/12/22 12:06:34;;;;;;;1.10;0.70;;;6.50;99.90;;;;;;5088367;28;20536;-77
2023/12/22 12:09:04;;;;;;;0.73;0.70;;;6.60;99.90;;;;;;5055363;28;20250;-77
2023/12/22 12:12:08;;;;;;;0.47;0.43;;;6.60;99.90;;;;;;5087382;28;20711;-76
2023/12/22 12:14:42;;;;;;;0.93;0.90;;;6.60;99.90;;;;;;5086560;28;20206;-77
2023/12/22 12:17:10;;;;;;;0.63;0.60;;;6.50;99.90;;;;;;5088124;28;20286;-77
2023/12/22 12:19:41;;;;;;;5.05;0.68;;;6.60;99.90;;;;;;5086358;28;20205;-76
2023/12/22 12:22:08;;;;;;;1.92;0.52;;;6.70;99.90;;;;;;5087426;28;20202;-77
2023/12/22 12:24:37;;;;;;;0.93;0.70;;;6.60;99.90;;;;;;5088196;28;20241;-77
2023/12/22 12:27:04;;;;;;;0.60;0.55;;;6.50;99.90;;;;;;5088147;28;20214;-76
2023/12/22 12:29:33;;;;;;;0.30;0.30;;;6.60;99.90;;;;;;5088553;28;20271;-77
2023/12/22 12:32:04;;;;;;;0.77;0.52;;;6.50;99.90;;;;;;5087645;28;20206;-77
2023/12/22 12:34:32;;;;;;;0.40;0.30;;;6.60;99.90;;;;;;5085751;28;20290;-76
2023/12/22 12:37:03;;;;;;;0.52;0.50;;;6.60;99.90;;;;;;5088198;28;20230;-77
2023/12/22 12:39:32;;;;;;;0.70;0.70;;;6.60;99.90;;;;;;5087364;28;20683;-77
2023/12/22 12:42:01;;;;;;;0.40;0.32;;;6.70;99.90;;;;;;5087832;28;20256;-76
2023/12/22 12:44:28;;;;;;;0.63;0.50;;;6.60;99.90;;;;;;5087212;28;20214;-76
2023/12/22 12:46:55;;;;;;;0.50;0.40;;;6.60;99.90;;;;;;5085409;28;20206;-77
2023/12/22 12:49:26;;;;;;;0.70;0.40;;;6.60;99.90;;;;;;5078424;28;20678;-77
2023/12/22 12:51:53;;;;;;;0.52;0.50;;;6.60;99.90;;;;;;5089650;28;20234;-75
2023/12/22 12:54:22;;;;;;;0.43;0.40;;;6.60;99.90;;;;;;5083723;28;20220;-75
2023/12/22 12:56:49;;;;;;;0.90;0.40;;;6.60;99.90;;;;;;5085567;28;20222;-75
2023/12/22 12:59:17;;;;;;;0.82;0.40;;;6.70;99.90;;;;;;5087902;28;20202;-75
2023/12/22 13:01:46;;;;;;;0.75;0.47;;;6.60;99.90;;;;;;5086986;28;20740;-75